Strona główna
METAR-TAF:

METAR-TAF

Lotnisko :

Lydd, Anglia

Szerokość geograficzna: 50-57N, Długość geograficzna: 000-56E, wysokość: 3 m

Aktualna obserwacja pogody

Raport powstał 33 minut temu, godzina 03:50 UTC
Wiatr 8 kt od zachód
Temperatura 6°C
Wilgotność 93%
Ciśnienie 1009 hPa
Widzialność 10 km lub więcej

METAR: EGMD 110350Z AUTO 26008KT 9999 NCD 06/05 Q1009

czas: 04:23 (04:23 UTC)

Prognoza

Raport powstał 2 godziny i 30 minut temu, godzina 01:53 UTC
Prognoza ważna od 11 godzina 03 UTC do 11 godzina 12 UTC
Wiatr 10 kt od zachód
Widzialność 10 km lub więcej
Mało chmury na wysokości 3000 ft
Stopniowe zmiany
od 11 godzina 04 UTC do 11 godzina 08 UTC
Wiatr 5 kt od południowo-południowy zachód
Prawdopodobieństwo 40% :
Przejściowo
od 11 godzina 10 UTC do 11 godzina 12 UTC
Widzialność: 7000 m
przelotny opad deszczu

TAF: EGMD 110153Z 1103/1112 26010KT 9999 FEW030 BECMG 1104/1108 20005KT PROB40 TEMPO 1110/1112 7000 SHRA

Obserwacja i prognoza pogody dla ponad 4000 lotnisk (raport METAR i TAF).

Dostępne stacje oznaczono żółtymi i czerwonymi punktami na mapie.

Najedź kursorem aby zobaczyć nazwę stacji.

Kliknij aby zobaczyć obserwacje i prognozy pogody.

Aby zmienić mapę: kliknij na zielony przycisk z czarnym krzyżykiem, aby powiększyć; na zielony przycisk z myślnikiem, aby pomniejszyć; na zielone strzałki, aby przejść do map sąsiednich.


METAR-TAF: